CDT,Max TemperatureF,Mean TemperatureF,Min TemperatureF,Max Dew PointF,MeanDew PointF,Min DewpointF,Max Humidity, Mean Humidity, Min Humidity, Max Sea Level PressureIn, Mean Sea Level PressureIn, Min Sea Level PressureIn, Max VisibilityMiles, Mean VisibilityMiles, Min VisibilityMiles, Max Wind SpeedMPH, Mean Wind SpeedMPH, Max Gust SpeedMPH,PrecipitationIn, CloudCover, Events, WindDirDegrees
2013-5-1,82,62,41,60,48,38,89,68,44,30.18,30.02,29.82,10,9,2,28,13,34,0.35,5,Rain-Thunderstorm,38
2013-5-2,41,36,32,38,33,30,96,90,86,30.42,30.35,30.19,10,5,0,26,19,34,0.66,8,Fog-Rain-Snow,349
2013-5-3,39,36,33,36,33,31,100,87,75,30.33,30.11,29.94,10,7,2,24,12,32,0.20,8,Rain-Snow,334
2013-5-4,48,40,32,43,37,30,100,88,71,30.05,29.94,29.85,10,5,2,14,10,,0.17,8,Rain-Snow,352
2013-5-5,55,50,44,49,46,43,100,90,80,30.14,30.08,30.03,9,5,1,15,10,,0.02,8,,332
2013-5-6,66,57,48,54,50,47,93,83,65,30.13,30.08,30.03,10,7,4,13,9,,0.00,5,,333
2013-5-7,73,58,44,55,48,45,100,79,38,30.10,30.05,29.98,10,6,0,9,2,,0.00,0,Fog,127
2013-5-8,73,64,55,57,55,48,90,73,55,30.02,29.95,29.88,10,10,9,22,7,30,0.09,5,Rain-Thunderstorm,157
2013-5-9,73,65,57,59,57,55,93,78,55,29.94,29.89,29.84,10,9,2,16,7,,0.25,4,Rain-Thunderstorm,265
2013-5-10,66,58,50,54,51,46,96,80,52,30.06,30.00,29.91,10,8,5,14,9,22,0.01,4,,333
2013-5-11,64,55,42,47,36,26,83,51,26,30.26,30.16,30.06,10,10,10,23,10,32,0.00,0,,325
2013-5-12,64,50,37,42,32,23,73,49,26,30.30,30.23,30.15,10,10,10,7,2,,0.00,2,,197
2013-5-13,75,60,44,55,47,40,85,61,40,30.17,30.08,29.94,10,10,10,14,7,,0.00,0,,156
2013-5-14,91,76,60,56,51,44,80,47,22,29.92,29.85,29.80,10,10,10,23,13,39,0.00,0,,203
2013-5-15,84,73,62,66,59,52,90,64,49,29.92,29.86,29.81,10,10,8,20,13,24,0.00,1,,192
2013-5-16,79,68,59,62,60,57,93,74,54,29.88,29.85,29.81,10,10,8,14,6,18,0.00,3,,153
2013-5-17,75,67,59,61,59,57,94,79,57,29.96,29.90,29.85,10,9,6,8,5,,0.00,5,,142
2013-5-18,82,72,62,70,65,58,87,75,58,29.92,29.82,29.73,10,9,6,16,9,26,0.00,4,,130
2013-5-19,82,72,62,70,62,56,94,78,62,29.84,29.70,29.58,10,8,2,31,13,48,0.53,4,Rain-Thunderstorm,166
2013-5-20,78,68,60,66,61,57,94,83,71,29.78,29.70,29.63,10,10,7,16,9,21,0.00,3,Thunderstorm,176
2013-5-21,75,64,55,60,51,48,84,63,44,29.78,29.73,29.69,10,10,6,16,9,22,0.00,1,,253
2013-5-22,66,60,53,52,49,46,83,68,54,29.96,29.83,29.74,10,10,10,16,8,23,0.00,6,,291
2013-5-23,68,58,50,54,50,47,92,73,61,30.23,30.12,29.97,10,10,10,17,8,22,0.00,4,,353
2013-5-24,73,62,51,52,48,46,89,63,44,30.32,30.23,30.13,10,10,9,22,9,28,0.00,1,,124
2013-5-25,82,70,61,63,58,47,78,64,54,30.15,30.09,30.00,10,10,10,16,11,25,0.00,2,,168
2013-5-26,82,74,66,67,65,63,90,72,58,30.04,29.98,29.89,10,10,9,22,12,28,0.00,3,,176
2013-5-27,81,72,62,70,63,61,100,85,65,29.93,29.83,29.66,10,7,0,21,12,32,1.25,7,Fog-Rain,104
2013-5-28,79,74,71,70,67,64,88,79,73,29.81,29.73,29.63,10,9,6,20,12,29,0.04,7,Rain-Thunderstorm,170
2013-5-29,80,74,64,66,64,60,87,72,64,29.80,29.73,29.64,10,10,9,24,14,38,0.10,6,Rain,157
2013-5-30,73,68,62,64,61,59,96,90,71,29.75,29.69,29.62,10,6,1,20,12,30,1.24,6,Rain-Thunderstorm,186
2013-5-31,78,67,57,67,62,57,100,89,66,29.75,29.72,29.67,10,8,0,24,9,33,2.53,5,Fog-Rain-Thunderstorm,100